Time;durP1;ratioP1;P1;durP2;ratioP2;P2;SDS_P1;SDS_P2;PMS_P1;PMS_P2;Temp;Humidity;BMP_temperature;BMP_pressure;BME280_temperature;BME280_humidity;BME280_pressure;Samples;Min_cycle;Max_cycle;Signal;HPM_P1;HPM_P2
2021/08/22 00:02:03;;;;;;;7.07;1.90;;;;;;;15.23;100.00;100705.66;5053862;28;20025;-79
2021/08/22 00:04:28;;;;;;;4.63;1.88;;;;;;;15.24;100.00;100704.75;5053465;28;20033;-79
2021/08/22 00:06:53;;;;;;;5.38;2.00;;;;;;;15.23;100.00;100701.28;5053630;28;20056;-79
2021/08/22 00:09:19;;;;;;;4.78;1.98;;;;;;;15.28;100.00;100699.38;5055081;28;20385;-79
2021/08/22 00:11:44;;;;;;;5.30;2.10;;;;;;;15.29;100.00;100708.06;5055270;28;20024;-79
2021/08/22 00:14:09;;;;;;;5.18;2.22;;;;;;;15.25;100.00;100709.09;5054695;28;20027;-79
2021/08/22 00:16:34;;;;;;;4.68;2.13;;;;;;;15.25;100.00;100706.47;5054718;28;20067;-79
2021/08/22 00:19:00;;;;;;;4.72;1.88;;;;;;;15.26;100.00;100700.34;5053430;28;20033;-78
2021/08/22 00:21:25;;;;;;;5.70;2.20;;;;;;;15.23;100.00;100697.84;5054529;28;20060;-79
2021/08/22 00:23:50;;;;;;;3.97;1.77;;;;;;;15.23;100.00;100690.84;5054534;28;20021;-79
2021/08/22 00:26:15;;;;;;;5.75;2.00;;;;;;;15.20;100.00;100696.19;5054496;28;20043;-79
2021/08/22 00:28:41;;;;;;;4.50;2.00;;;;;;;15.17;100.00;100691.91;5053134;28;20040;-79
2021/08/22 00:31:06;;;;;;;4.50;1.90;;;;;;;15.12;100.00;100693.00;5054742;28;20021;-79
2021/08/22 00:33:31;;;;;;;5.20;2.05;;;;;;;15.11;100.00;100686.03;5054324;28;20021;-79
2021/08/22 00:35:56;;;;;;;4.88;2.20;;;;;;;15.05;100.00;100683.66;5053054;28;20119;-78
2021/08/22 00:38:22;;;;;;;5.10;1.92;;;;;;;15.02;100.00;100684.59;5054415;28;20393;-79
2021/08/22 00:40:48;;;;;;;4.72;1.88;;;;;;;14.98;100.00;100679.53;5054398;28;20477;-79
2021/08/22 00:43:13;;;;;;;4.40;1.83;;;;;;;15.00;100.00;100672.53;5052898;28;20370;-79
2021/08/22 00:45:39;;;;;;;7.03;2.13;;;;;;;14.95;100.00;100670.91;5051978;28;20028;-79
2021/08/22 00:48:05;;;;;;;5.55;1.98;;;;;;;14.95;100.00;100670.91;5054374;28;20021;-79
2021/08/22 00:50:32;;;;;;;5.55;2.28;;;;;;;14.92;100.00;100664.94;5054379;28;20048;-79
2021/08/22 00:52:58;;;;;;;5.03;2.10;;;;;;;14.94;100.00;100669.22;5052737;28;20029;-79
2021/08/22 00:55:23;;;;;;;7.78;2.20;;;;;;;14.95;100.00;100664.84;5053957;28;20542;-79
2021/08/22 00:57:49;;;;;;;7.47;1.90;;;;;;;14.98;100.00;100664.72;5054029;28;20035;-79
2021/08/22 01:00:15;;;;;;;5.10;2.20;;;;;;;14.95;100.00;100657.84;5052522;28;20569;-79
2021/08/22 01:03:11;;;;;;;5.53;2.03;;;;;;;14.95;100.00;100657.84;5053861;28;20029;-79
2021/08/22 01:05:49;;;;;;;4.97;2.08;;;;;;;14.94;100.00;100660.53;5052594;28;20071;-79
2021/08/22 01:08:26;;;;;;;4.25;2.00;;;;;;;14.98;100.00;100666.50;5052484;28;20073;-79
2021/08/22 01:11:14;;;;;;;6.88;2.08;;;;;;;14.95;100.00;100649.16;5053747;28;20032;-79
2021/08/22 01:13:43;;;;;;;6.22;2.00;;;;;;;14.90;100.00;100645.84;5053554;28;20029;-79
2021/08/22 01:16:11;;;;;;;6.22;2.38;;;;;;;14.91;100.00;100645.81;5052308;28;20151;-79
2021/08/22 01:18:42;;;;;;;5.95;2.28;;;;;;;14.90;100.00;100638.88;5052344;28;20017;-79
2021/08/22 01:21:20;;;;;;;4.45;2.00;;;;;;;14.90;100.00;100633.66;5053427;28;20025;-79
2021/08/22 01:23:53;;;;;;;5.03;2.25;;;;;;;14.89;100.00;100634.56;5053507;28;20087;-79
2021/08/22 01:26:23;;;;;;;7.45;2.30;;;;;;;14.86;100.00;100632.03;5052224;28;20493;-79
2021/08/22 01:28:50;;;;;;;4.13;1.73;;;;;;;14.83;100.00;100629.53;5053476;28;20120;-79
2021/08/22 01:31:18;;;;;;;5.18;1.95;;;;;;;14.83;100.00;100632.16;5052073;28;20040;-79
2021/08/22 01:33:47;;;;;;;5.72;2.00;;;;;;;14.82;100.00;100632.22;5051977;28;20021;-79
2021/08/22 01:36:13;;;;;;;6.47;1.90;;;;;;;14.82;100.00;100630.47;5053218;28;20029;-79
2021/08/22 01:38:40;;;;;;;4.95;2.10;;;;;;;14.79;100.00;100629.72;5053230;28;20401;-79
2021/08/22 01:41:06;;;;;;;5.03;2.22;;;;;;;14.85;100.00;100627.75;5053118;28;20120;-79
2021/08/22 01:43:33;;;;;;;3.75;1.52;;;;;;;14.86;100.00;100624.22;5053272;28;20025;-79
2021/08/22 01:45:59;;;;;;;4.55;1.80;;;;;;;14.90;100.00;100631.06;5051850;28;20036;-79
2021/08/22 01:48:25;;;;;;;4.43;1.90;;;;;;;14.84;100.00;100618.22;5053024;28;20029;-79
2021/08/22 01:50:55;;;;;;;5.57;2.47;;;;;;;14.88;100.00;100621.56;5053101;28;20055;-79
2021/08/22 01:53:21;;;;;;;4.22;1.90;;;;;;;14.85;100.00;100622.53;5051771;28;20021;-79
2021/08/22 01:55:46;;;;;;;4.60;2.05;;;;;;;14.84;100.00;100623.44;5053433;28;20025;-79
2021/08/22 01:58:12;;;;;;;4.15;2.00;;;;;;;14.85;100.00;100621.66;5051808;28;20025;-79
2021/08/22 02:00:37;;;;;;;9.00;2.08;;;;;;;14.84;100.00;100612.09;5051676;28;20029;-79
2021/08/22 02:03:19;;;;;;;5.25;2.05;;;;;;;14.80;100.00;100608.75;5052844;28;20330;-79
2021/08/22 02:05:50;;;;;;;3.95;1.90;;;;;;;14.80;100.00;100597.47;5052960;28;20021;-79
2021/08/22 02:08:19;;;;;;;6.45;2.08;;;;;;;14.78;100.00;100605.38;5052887;28;20477;-79
2021/08/22 02:10:51;;;;;;;4.22;1.90;;;;;;;14.74;100.00;100588.94;5052886;28;20032;-79
2021/08/22 02:13:21;;;;;;;4.55;1.85;;;;;;;14.74;100.00;100588.94;5053058;28;20028;-79
2021/08/22 02:15:48;;;;;;;6.25;2.28;;;;;;;14.77;100.00;100571.47;5052801;28;20025;-79
2021/08/22 02:18:16;;;;;;;3.92;1.70;;;;;;;14.76;100.00;100578.44;5051622;28;20053;-79
2021/08/22 02:20:45;;;;;;;4.38;1.88;;;;;;;14.74;100.00;100575.03;5052753;28;20389;-79
2021/08/22 02:23:11;;;;;;;7.25;2.28;;;;;;;14.71;100.00;100564.69;5052744;28;20021;-79
2021/08/22 02:25:37;;;;;;;5.18;1.60;;;;;;;14.69;100.00;100577.81;5051507;28;20063;-79
2021/08/22 02:28:02;;;;;;;7.10;1.85;;;;;;;14.70;100.00;100576.06;5052776;28;20028;-79
2021/08/22 02:30:33;;;;;;;6.28;1.92;;;;;;;14.63;100.00;100572.81;5052780;28;20420;-79
2021/08/22 02:32:59;;;;;;;13.23;2.67;;;;;;;14.60;100.00;100570.31;5052672;28;20052;-79
2021/08/22 02:35:24;;;;;;;5.00;1.80;;;;;;;14.57;100.00;100570.41;5051438;28;20060;-79
2021/08/22 02:37:49;;;;;;;4.40;1.67;;;;;;;14.57;100.00;100569.56;5052568;28;20478;-79
2021/08/22 02:40:15;;;;;;;4.30;1.60;;;;;;;14.50;100.00;100561.91;5051241;28;20025;-79
2021/08/22 02:42:40;;;;;;;7.07;2.10;;;;;;;14.47;100.00;100574.19;5052942;28;20123;-79
2021/08/22 02:45:08;;;;;;;4.00;1.77;;;;;;;14.50;100.00;100569.75;5052601;28;20028;-79
2021/08/22 02:47:33;;;;;;;5.22;1.65;;;;;;;14.48;100.00;100566.31;5051321;28;20025;-80
2021/08/22 02:49:58;;;;;;;4.63;1.90;;;;;;;14.49;100.00;100564.56;5051304;28;20029;-80
2021/08/22 02:52:23;;;;;;;4.32;1.70;;;;;;;14.47;100.00;100563.75;5051204;28;20036;-79
2021/08/22 02:54:49;;;;;;;4.82;1.70;;;;;;;14.44;100.00;100553.41;5052414;28;20029;-79
2021/08/22 02:57:19;;;;;;;3.47;1.58;;;;;;;14.43;100.00;100563.00;5051224;28;20397;-79
2021/08/22 02:59:44;;;;;;;4.85;1.70;;;;;;;14.42;100.00;100561.31;5052358;28;20032;-79
2021/08/22 03:02:09;;;;;;;9.05;1.50;;;;;;;14.35;100.00;100554.59;5051119;28;20020;-79
2021/08/22 03:04:35;;;;;;;3.60;1.40;;;;;;;14.35;100.00;100549.38;5050945;28;20074;-79
2021/08/22 03:07:00;;;;;;;4.90;1.73;;;;;;;14.32;100.00;100552.09;5051094;28;20057;-79
2021/08/22 03:09:25;;;;;;;3.58;1.63;;;;;;;14.33;100.00;100551.19;5054503;28;20389;-79
2021/08/22 03:11:50;;;;;;;6.25;1.70;;;;;;;14.36;100.00;100558.06;5054704;28;20021;-79
2021/08/22 03:14:16;;;;;;;4.60;1.63;;;;;;;14.32;100.00;100551.25;5054617;28;20032;-79
2021/08/22 03:16:41;;;;;;;4.53;1.60;;;;;;;14.25;100.00;100542.75;5054656;28;20032;-79
2021/08/22 03:19:06;;;;;;;4.15;1.50;;;;;;;14.29;100.00;100539.16;5054544;28;20024;-79
2021/08/22 03:21:33;;;;;;;5.03;1.63;;;;;;;14.26;100.00;100541.88;5054418;28;20516;-79
2021/08/22 03:23:58;;;;;;;4.45;1.65;;;;;;;14.18;100.00;100542.13;5054475;28;20025;-79
2021/08/22 03:26:24;;;;;;;5.22;1.88;;;;;;;14.19;100.00;100542.97;5055679;28;20378;-79
2021/08/22 03:28:51;;;;;;;4.28;1.50;;;;;;;14.26;100.00;100545.31;5055660;28;20021;-79
2021/08/22 03:31:16;;;;;;;6.43;1.67;;;;;;;14.24;100.00;100541.06;5055714;28;20017;-79
2021/08/22 03:33:41;;;;;;;4.15;1.35;;;;;;;14.21;100.00;100538.56;5055525;28;20032;-79
2021/08/22 03:36:07;;;;;;;4.13;1.52;;;;;;;14.24;100.00;100536.69;5055675;28;20021;-79
2021/08/22 03:38:32;;;;;;;4.05;1.63;;;;;;;14.19;100.00;100548.19;5055401;28;20027;-79
2021/08/22 03:40:57;;;;;;;5.55;1.92;;;;;;;14.20;100.00;100544.69;5054158;28;20071;-79
2021/08/22 03:43:23;;;;;;;5.03;1.70;;;;;;;14.23;100.00;100536.75;5055326;28;20025;-79
2021/08/22 03:45:48;;;;;;;4.03;1.85;;;;;;;14.25;100.00;100533.19;5053984;28;20063;-79
2021/08/22 03:48:13;;;;;;;4.47;1.70;;;;;;;14.24;100.00;100531.47;5053966;28;20033;-79
2021/08/22 03:50:38;;;;;;;6.30;1.40;;;;;;;14.26;100.00;100528.81;5054008;28;20099;-79
2021/08/22 03:53:04;;;;;;;4.53;1.45;;;;;;;14.29;100.00;100531.34;5055445;28;20028;-79
2021/08/22 03:55:29;;;;;;;3.47;1.45;;;;;;;14.31;100.00;100524.28;5053858;28;20017;-79
2021/08/22 03:57:54;;;;;;;7.40;1.92;;;;;;;14.32;100.00;100522.56;5054159;28;20024;-79
2021/08/22 04:00:20;;;;;;;3.90;1.60;;;;;;;14.34;100.00;100520.72;5054962;28;20104;-79
2021/08/22 04:02:45;;;;;;;5.07;1.60;;;;;;;14.35;100.00;100522.44;5055149;28;20025;-79
2021/08/22 04:05:12;;;;;;;3.42;1.58;;;;;;;14.33;100.00;100522.47;5053524;28;20036;-79
2021/08/22 04:07:38;;;;;;;3.17;1.17;;;;;;;14.39;100.00;100524.03;5055236;28;20096;-79
2021/08/22 04:10:07;;;;;;;4.82;1.58;;;;;;;14.34;100.00;100516.34;5053723;28;20025;-80
2021/08/22 04:12:33;;;;;;;5.43;1.58;;;;;;;14.33;100.00;100517.25;5054912;28;20430;-79
2021/08/22 04:14:58;;;;;;;3.58;1.50;;;;;;;14.35;100.00;100507.63;5053470;28;20021;-79
2021/08/22 04:17:23;;;;;;;4.28;1.45;;;;;;;14.29;100.00;100510.47;5053523;28;20094;-79
2021/08/22 04:19:48;;;;;;;4.93;1.73;;;;;;;14.31;100.00;100500.81;5054926;28;20176;-79
2021/08/22 04:22:14;;;;;;;6.13;1.60;;;;;;;14.31;100.00;100510.41;5054693;28;20078;-79
2021/08/22 04:24:39;;;;;;;3.33;1.30;;;;;;;14.28;100.00;100511.34;5053269;28;20023;-79
2021/08/22 04:27:05;;;;;;;5.70;1.50;;;;;;;14.28;100.00;100500.91;5054647;28;20116;-79
2021/08/22 04:29:32;;;;;;;5.78;1.30;;;;;;;14.20;100.00;100503.78;5053327;28;20056;-79
2021/08/22 04:31:57;;;;;;;4.45;1.80;;;;;;;14.23;100.00;100502.84;5054451;28;20075;-79
2021/08/22 04:34:22;;;;;;;5.35;1.60;;;;;;;14.22;100.00;100506.34;5054367;28;20428;-79
2021/08/22 04:36:48;;;;;;;4.00;1.30;;;;;;;14.27;100.00;100496.59;5054385;28;20028;-79
2021/08/22 04:39:15;;;;;;;3.80;1.55;;;;;;;14.30;100.00;100512.16;5053070;28;20036;-79
2021/08/22 04:41:44;;;;;;;4.18;1.60;;;;;;;14.33;100.00;100505.97;5053014;28;20025;-79
2021/08/22 04:44:11;;;;;;;4.90;1.70;;;;;;;14.36;100.00;100501.50;5052948;28;20548;-79
2021/08/22 04:46:36;;;;;;;5.85;1.70;;;;;;;14.36;100.00;100504.13;5052917;28;20481;-79
2021/08/22 04:49:01;;;;;;;5.68;1.52;;;;;;;14.37;100.00;100503.19;5052880;28;20040;-79
2021/08/22 04:51:26;;;;;;;5.18;1.80;;;;;;;14.35;100.00;100505.03;5054093;28;20535;-79
2021/08/22 04:53:52;;;;;;;4.32;1.50;;;;;;;14.38;100.00;100502.31;5052604;28;20366;-79
2021/08/22 04:56:17;;;;;;;4.15;1.17;;;;;;;14.40;100.00;100510.91;5054034;28;20035;-79
2021/08/22 04:58:42;;;;;;;3.47;1.75;;;;;;;14.49;100.00;100517.59;5052716;28;20389;-79
2021/08/22 05:01:07;;;;;;;5.20;1.45;;;;;;;14.44;100.00;100524.72;5053834;28;20032;-79
2021/08/22 05:03:33;;;;;;;6.00;1.50;;;;;;;14.45;100.00;100523.81;5076593;22;20056;-78
2021/08/22 05:05:58;;;;;;;5.05;1.42;;;;;;;14.46;100.00;100520.28;5054433;28;20032;-78
2021/08/22 05:08:23;;;;;;;6.40;1.60;;;;;;;14.45;100.00;100521.22;5054758;28;20024;-78
2021/08/22 05:10:49;;;;;;;3.47;1.30;;;;;;;14.43;100.00;100520.41;5053310;28;20055;-78
2021/08/22 05:13:15;;;;;;;5.78;1.48;;;;;;;14.48;100.00;100515.88;5052696;28;20066;-78
2021/08/22 05:15:41;;;;;;;3.13;1.00;;;;;;;14.47;100.00;100520.25;5054411;28;20036;-78
2021/08/22 05:18:07;;;;;;;5.60;1.60;;;;;;;14.47;100.00;100517.66;5054314;28;20021;-78
2021/08/22 05:20:32;;;;;;;4.07;1.30;;;;;;;14.49;100.00;100517.59;5054303;28;20033;-78
2021/08/22 05:22:57;;;;;;;5.80;1.40;;;;;;;14.47;100.00;100515.03;5054735;28;20040;-78
2021/08/22 05:25:22;;;;;;;4.97;1.40;;;;;;;14.49;100.00;100521.03;5054289;28;20389;-78
2021/08/22 05:27:48;;;;;;;5.10;1.05;;;;;;;14.53;100.00;100502.69;5053287;28;20043;-78
2021/08/22 05:30:13;;;;;;;5.25;1.13;;;;;;;14.46;100.00;100510.72;5053731;28;20461;-78
2021/08/22 05:32:38;;;;;;;4.03;1.38;;;;;;;14.48;100.00;100519.34;5053816;28;20029;-78
2021/08/22 05:35:04;;;;;;;4.55;1.55;;;;;;;14.48;100.00;100527.19;5054010;28;20116;-78
2021/08/22 05:37:30;;;;;;;5.40;1.40;;;;;;;14.49;100.00;100510.59;5053139;28;20397;-78
2021/08/22 05:39:55;;;;;;;4.15;1.40;;;;;;;14.49;100.00;100510.59;5054265;28;20021;-78
2021/08/22 05:42:21;;;;;;;3.97;1.50;;;;;;;14.46;100.00;100507.25;5054154;28;20370;-78
2021/08/22 05:44:46;;;;;;;4.00;1.20;;;;;;;14.48;100.00;100515.88;5052815;28;20033;-78
2021/08/22 05:47:11;;;;;;;6.28;1.60;;;;;;;14.47;100.00;100508.94;5054094;28;20024;-78
2021/08/22 05:49:40;;;;;;;3.28;1.20;;;;;;;14.52;100.00;100506.22;5054073;28;20033;-78
2021/08/22 05:52:09;;;;;;;2.47;1.02;;;;;;;14.56;100.00;100505.19;5054592;28;20036;-78
2021/08/22 05:54:35;;;;;;;2.97;1.15;;;;;;;14.56;100.00;100508.66;5052064;28;20162;-78
2021/08/22 05:57:00;;;;;;;4.03;1.20;;;;;;;14.61;100.00;100511.13;5053367;28;20025;-78
2021/08/22 05:59:26;;;;;;;5.38;1.27;;;;;;;14.63;100.00;100511.94;5053549;28;20071;-78
2021/08/22 06:01:51;;;;;;;4.07;1.30;;;;;;;14.69;100.00;100517.78;5054125;28;20028;-78
2021/08/22 06:04:16;;;;;;;4.25;1.40;;;;;;;14.75;100.00;100527.16;5053525;28;20405;-79
2021/08/22 06:06:41;;;;;;;4.82;1.55;;;;;;;14.78;100.00;100511.38;5054111;28;20025;-78
2021/08/22 06:09:07;;;;;;;4.60;1.50;;;;;;;14.85;100.00;100520.69;5052577;28;20035;-78
2021/08/22 06:11:32;;;;;;;4.63;1.50;;;;;;;14.87;100.00;100508.44;5052666;28;20500;-78
2021/08/22 06:13:57;;;;;;;2.80;1.20;;;;;;;14.89;100.00;100513.56;5054066;28;20424;-78
2021/08/22 06:16:22;;;;;;;3.83;1.30;;;;;;;14.90;100.00;100504.81;5054437;28;20041;-78
2021/08/22 06:18:48;;;;;;;4.70;1.40;;;;;;;15.03;100.00;100510.47;5054544;28;20492;-78
2021/08/22 06:21:13;;;;;;;5.05;1.40;;;;;;;15.07;100.00;100512.91;5052898;28;20040;-78
2021/08/22 06:23:38;;;;;;;3.80;1.52;;;;;;;15.06;100.00;100519.03;5052834;28;20025;-79
2021/08/22 06:26:03;;;;;;;4.10;1.30;;;;;;;15.16;100.00;100527.38;5053728;28;20028;-78
2021/08/22 06:28:29;;;;;;;5.80;1.17;;;;;;;15.17;100.00;100518.63;5052493;28;20024;-78
2021/08/22 06:30:54;;;;;;;3.67;1.35;;;;;;;15.25;100.00;100520.97;5054245;28;20079;-78
2021/08/22 06:33:19;;;;;;;7.20;1.48;;;;;;;15.38;100.00;100520.41;5053762;28;20036;-79
2021/08/22 06:35:45;;;;;;;2.53;0.93;;;;;;;15.25;100.00;100519.19;5051936;28;20068;-79
2021/08/22 06:38:10;;;;;;;4.95;1.40;;;;;;;15.23;100.00;100518.38;5052217;28;20453;-79
2021/08/22 06:40:35;;;;;;;5.03;1.40;;;;;;;15.31;100.00;100539.84;5053126;28;20021;-79
2021/08/22 06:43:00;;;;;;;3.55;1.60;;;;;;;15.23;100.00;100565.41;5052965;28;20029;-79
2021/08/22 06:45:26;;;;;;;3.35;1.42;;;;;;;15.31;100.00;100573.00;5057271;28;20021;-79
2021/08/22 06:47:53;;;;;;;5.80;1.25;;;;;;;15.23;100.00;100549.75;5057691;28;20032;-79
2021/08/22 06:50:24;;;;;;;4.10;1.42;;;;;;;15.29;100.00;100583.47;5057426;28;20111;-79
2021/08/22 06:52:49;;;;;;;3.35;1.10;;;;;;;15.31;100.00;100568.59;5056690;28;20025;-79
2021/08/22 06:55:14;;;;;;;3.10;1.10;;;;;;;15.34;100.00;100563.25;5056688;28;20029;-79
2021/08/22 06:57:39;;;;;;;5.57;1.40;;;;;;;15.33;100.00;100586.81;5055790;28;20025;-79
2021/08/22 07:00:06;;;;;;;3.55;1.20;;;;;;;15.27;100.00;100545.25;5056861;28;20017;-79
2021/08/22 07:02:31;;;;;;;4.00;1.40;;;;;;;15.32;100.00;100570.28;5055647;28;20127;-79
2021/08/22 07:04:56;;;;;;;5.15;1.50;;;;;;;15.19;100.00;100561.22;5056969;28;20039;-78
2021/08/22 07:07:21;;;;;;;6.97;1.20;;;;;;;15.26;100.00;100554.00;5055482;28;20090;-79
2021/08/22 07:09:47;;;;;;;6.15;1.52;;;;;;;15.38;100.00;100575.28;5055731;28;20103;-79
2021/08/22 07:12:14;;;;;;;3.97;1.30;;;;;;;15.39;100.00;100553.50;5061011;28;20465;-79
2021/08/22 07:14:39;;;;;;;3.25;1.30;;;;;;;15.51;100.00;100560.00;5060238;28;20036;-78
2021/08/22 07:17:05;;;;;;;4.00;1.45;;;;;;;15.63;100.00;100553.44;5058716;28;20029;-79
2021/08/22 07:19:30;;;;;;;4.43;1.48;;;;;;;15.56;100.00;100557.22;5060973;28;20029;-79
2021/08/22 07:21:56;;;;;;;5.32;1.25;;;;;;;15.65;100.00;100552.47;5061047;28;20025;-79
2021/08/22 07:24:22;;;;;;;5.28;1.25;;;;;;;15.75;100.00;100549.53;5058291;28;20021;-79
2021/08/22 07:26:47;;;;;;;4.10;1.52;;;;;;;15.77;100.00;100545.94;5055403;28;20070;-78
2021/08/22 07:29:13;;;;;;;3.47;1.48;;;;;;;15.73;100.00;100544.34;5056185;28;20033;-78
2021/08/22 07:31:38;;;;;;;3.78;1.42;;;;;;;15.71;100.00;100545.34;5054752;28;20099;-78
2021/08/22 07:34:03;;;;;;;6.88;2.33;;;;;;;15.55;100.00;100540.69;5055233;28;20029;-80
2021/08/22 07:36:28;;;;;;;5.22;1.60;;;;;;;15.57;100.00;100540.59;5056951;28;20036;-79
2021/08/22 07:38:54;;;;;;;5.80;1.80;;;;;;;15.48;100.00;100544.41;5055857;28;20052;-78
2021/08/22 07:41:19;;;;;;;4.80;1.40;;;;;;;15.51;100.00;100546.91;5056764;28;20025;-79
2021/08/22 07:43:44;;;;;;;4.80;1.65;;;;;;;15.39;100.00;100547.38;5055357;28;20021;-79
2021/08/22 07:46:10;;;;;;;4.45;1.50;;;;;;;15.38;100.00;100550.94;5054901;28;20115;-79
2021/08/22 07:48:35;;;;;;;3.35;1.10;;;;;;;15.52;100.00;100545.19;5057085;28;20484;-79
2021/08/22 07:51:00;;;;;;;3.70;1.42;;;;;;;15.57;100.00;100548.44;5056019;28;20024;-79
2021/08/22 07:53:26;;;;;;;4.15;1.95;;;;;;;15.49;100.00;100555.75;5057121;28;20107;-79
2021/08/22 07:55:51;;;;;;;4.65;1.60;;;;;;;15.55;100.00;100547.69;5056144;28;20028;-79
2021/08/22 07:58:16;;;;;;;4.50;1.58;;;;;;;15.63;100.00;100549.06;5055820;28;20039;-79
2021/08/22 08:00:41;;;;;;;4.10;1.45;;;;;;;15.57;100.00;100545.84;5056936;28;20029;-80
2021/08/22 08:03:07;;;;;;;4.20;1.60;;;;;;;15.47;100.00;100555.81;5057048;28;20088;-81
2021/08/22 08:05:32;;;;;;;3.60;1.42;;;;;;;15.46;100.00;100555.88;5058496;28;20094;-80
2021/08/22 08:07:57;;;;;;;5.85;1.85;;;;;;;15.50;100.00;100547.00;5058633;28;20119;-81
2021/08/22 08:10:24;;;;;;;8.77;2.67;;;;;;;15.59;100.00;100549.25;5057902;28;20440;-81
2021/08/22 08:12:50;;;;;;;6.88;1.70;;;;;;;15.61;100.00;100547.44;5057051;28;20112;-80
2021/08/22 08:15:16;;;;;;;5.10;1.90;;;;;;;15.57;100.00;100554.53;5056977;28;20033;-79
2021/08/22 08:17:41;;;;;;;5.47;1.77;;;;;;;15.59;100.00;100541.41;5056989;28;20542;-80
2021/08/22 08:20:06;;;;;;;5.00;1.75;;;;;;;15.73;100.00;100549.56;5057780;28;20048;-80
2021/08/22 08:22:32;;;;;;;5.10;1.70;;;;;;;15.70;100.00;100548.84;5059192;28;20108;-79
2021/08/22 08:24:57;;;;;;;3.95;1.50;;;;;;;15.84;100.00;100542.16;5058026;28;20029;-80
2021/08/22 08:27:23;;;;;;;4.60;1.70;;;;;;;15.65;100.00;100557.69;5057824;28;20435;-80
2021/08/22 08:29:49;;;;;;;5.45;1.60;;;;;;;15.69;100.00;100555.84;5058328;28;20032;-80
2021/08/22 08:32:14;;;;;;;4.70;1.50;;;;;;;15.85;100.00;100556.94;5059347;28;20064;-80
2021/08/22 08:34:40;;;;;;;4.15;1.48;;;;;;;16.01;100.00;100551.94;5061590;28;20029;-80
2021/08/22 08:37:05;;;;;;;4.90;1.70;;;;;;;16.08;100.00;100560.41;5061205;28;20017;-80
2021/08/22 08:39:31;;;;;;;4.57;1.55;;;;;;;16.09;100.00;100564.72;5059727;28;20433;-80
2021/08/22 08:42:22;;;;;;;4.28;1.40;;;;;;;15.92;100.00;100564.53;5060391;28;20032;-80
2021/08/22 08:44:49;;;;;;;5.47;1.58;;;;;;;15.83;100.00;100558.78;5060282;28;20036;-80
2021/08/22 08:47:16;;;;;;;4.45;1.50;;;;;;;15.72;100.00;100563.56;5061481;28;20036;-80
2021/08/22 08:49:57;;;;;;;5.30;1.63;;;;;;;15.78;100.00;100568.56;5059508;28;20098;-79
2021/08/22 08:52:43;;;;;;;4.80;1.60;;;;;;;15.62;100.00;100564.81;5059825;28;20196;-80
2021/08/22 08:55:40;;;;;;;3.60;1.42;;;;;;;15.62;100.00;100567.44;5057536;28;20040;-80
2021/08/22 08:58:05;;;;;;;4.53;1.85;;;;;;;15.53;100.00;100573.88;5056537;28;20500;-80
2021/08/22 09:00:33;;;;;;;5.03;1.80;;;;;;;15.51;100.00;100567.84;5058293;28;20029;-80
2021/08/22 09:03:00;;;;;;;4.78;1.45;;;;;;;15.53;100.00;100567.78;5055314;28;20025;-82
2021/08/22 09:06:02;;;;;;;5.07;1.90;;;;;;;15.50;100.00;100578.38;5055107;28;20443;-81
2021/08/22 09:09:04;;;;;;;6.00;1.73;;;;;;;15.43;100.00;100580.38;5055793;28;20047;-81
2021/08/22 09:12:07;;;;;;;5.70;1.83;;;;;;;15.40;100.00;100580.47;5057609;28;20361;-81
2021/08/22 09:15:17;;;;;;;3.90;1.40;;;;;;;15.44;100.00;100589.91;5058010;28;20512;-81
2021/08/22 09:18:00;;;;;;;4.10;1.55;;;;;;;15.39;100.00;100582.25;5058584;28;20025;-82
2021/08/22 09:20:31;;;;;;;6.10;2.05;;;;;;;15.11;100.00;100582.38;5057931;28;20029;-82
2021/08/22 09:23:24;;;;;;;5.43;2.05;;;;;;;14.94;100.00;100584.78;5058195;28;20025;-83
2021/08/22 09:26:14;;;;;;;5.53;2.10;;;;;;;14.62;100.00;100589.34;5057470;28;20370;-84
2021/08/22 09:29:07;;;;;;;7.05;2.05;;;;;;;14.44;100.00;100587.34;5057889;28;20025;-82
2021/08/22 09:32:10;;;;;;;6.68;2.17;;;;;;;14.30;100.00;100593.03;5060532;28;20033;-82
2021/08/22 09:35:13;;;;;;;6.68;2.50;;;;;;;14.27;100.00;100591.38;5057549;28;20056;-82
2021/08/22 09:38:16;;;;;;;6.32;2.20;;;;;;;14.15;100.00;100601.34;5057220;28;20556;-82
2021/08/22 09:41:23;;;;;;;6.22;2.63;;;;;;;14.16;100.00;100598.72;5053876;28;20025;-83
2021/08/22 09:44:19;;;;;;;7.03;2.85;;;;;;;14.19;100.00;100597.75;5055263;28;20027;-83
2021/08/22 09:46:47;;;;;;;6.60;2.88;;;;;;;14.26;100.00;100588.84;5054855;28;20489;-83
2021/08/22 09:49:50;;;;;;;8.25;2.60;;;;;;;14.25;100.00;100597.53;5054668;28;20385;-83
2021/08/22 09:52:57;;;;;;;6.97;2.90;;;;;;;14.25;100.00;100602.75;5054085;28;20088;-84
2021/08/22 09:55:47;;;;;;;6.18;2.80;;;;;;;14.20;100.00;100604.69;5052593;28;20025;-83
2021/08/22 09:58:43;;;;;;;5.95;3.17;;;;;;;14.42;100.00;100603.06;5054288;28;20067;-84
2021/08/22 10:01:50;;;;;;;6.85;3.20;;;;;;;14.48;100.00;100605.47;5054314;28;20029;-85
2021/08/22 10:04:36;;;;;;;7.20;2.90;;;;;;;14.43;100.00;100602.16;5052116;28;20482;-84
2021/08/22 10:07:22;;;;;;;8.45;3.10;;;;;;;14.44;100.00;100605.59;5054015;28;20097;-84
2021/08/22 10:09:55;;;;;;;9.05;2.78;;;;;;;14.31;100.00;100612.16;5052680;28;20047;-84
2021/08/22 10:12:20;;;;;;;5.82;2.35;;;;;;;14.35;100.00;100613.78;5053879;28;20025;-84
2021/08/22 10:14:45;;;;;;;6.78;2.80;;;;;;;14.49;100.00;100607.16;5052131;28;20111;-85
2021/08/22 10:17:19;;;;;;;5.70;2.80;;;;;;;14.60;100.00;100606.00;5055469;28;20028;-84
2021/08/22 10:19:46;;;;;;;5.40;3.00;;;;;;;14.59;100.00;100609.50;5056421;28;20396;-84
2021/08/22 10:22:19;;;;;;;5.90;3.00;;;;;;;14.67;100.00;100610.09;5056593;28;20048;-84
2021/08/22 10:24:49;;;;;;;5.35;2.95;;;;;;;14.68;100.00;100610.03;5056512;28;20032;-84
2021/08/22 10:27:29;;;;;;;5.45;2.95;;;;;;;14.67;100.00;100610.94;5056840;28;20060;-84
2021/08/22 10:29:56;;;;;;;5.70;2.90;;;;;;;14.62;100.00;100614.63;5058724;28;20048;-84
2021/08/22 10:32:21;;;;;;;7.18;3.28;;;;;;;14.59;100.00;100615.56;5057263;28;20057;-83
2021/08/22 10:35:01;;;;;;;8.20;3.35;;;;;;;14.47;100.00;100611.59;5057830;28;20025;-83
2021/08/22 10:37:29;;;;;;;10.55;2.92;;;;;;;14.59;100.00;100617.31;5058759;28;20074;-83
2021/08/22 10:39:55;;;;;;;8.88;3.65;;;;;;;14.72;100.00;100618.63;5058619;28;20017;-83
2021/08/22 10:42:24;;;;;;;6.93;2.85;;;;;;;14.59;100.00;100610.34;5059170;28;20025;-83
2021/08/22 10:44:49;;;;;;;7.50;3.55;;;;;;;14.63;100.00;100621.56;5057902;28;20021;-82
2021/08/22 10:47:21;;;;;;;4.95;2.70;;;;;;;14.50;100.00;100616.72;5059351;28;20025;-83
2021/08/22 10:49:52;;;;;;;6.22;3.10;;;;;;;14.45;100.00;100629.06;5057504;28;20033;-83
2021/08/22 10:52:24;;;;;;;8.02;3.22;;;;;;;14.83;100.00;100621.72;5057265;28;20048;-83
2021/08/22 10:55:26;;;;;;;8.95;3.80;;;;;;;15.00;100.00;100625.50;5057612;28;20509;-84
2021/08/22 10:57:51;;;;;;;6.85;3.30;;;;;;;14.67;100.00;100624.00;5057860;28;20056;-83
2021/08/22 11:00:29;;;;;;;5.30;2.83;;;;;;;14.58;100.00;100615.63;5058113;28;20021;-84
2021/08/22 11:02:55;;;;;;;7.18;3.33;;;;;;;14.67;100.00;100623.16;5058052;28;20025;-84
2021/08/22 11:05:25;;;;;;;5.65;2.80;;;;;;;14.64;100.00;100610.19;5079246;22;20078;-79
2021/08/22 11:07:52;;;;;;;6.00;3.17;;;;;;;14.68;100.00;100617.00;5056275;28;20485;-79
2021/08/22 11:10:20;;;;;;;6.10;3.50;;;;;;;14.77;100.00;100616.69;5055177;28;20414;-79
2021/08/22 11:12:45;;;;;;;7.35;3.55;;;;;;;14.54;100.00;100624.47;5054786;28;20028;-79
2021/08/22 11:15:28;;;;;;;5.55;3.05;;;;;;;14.53;100.00;100627.97;5055927;28;20029;-78
2021/08/22 11:17:58;;;;;;;9.13;3.17;;;;;;;14.52;100.00;100626.28;5055940;28;20028;-79
2021/08/22 11:20:28;;;;;;;6.43;3.53;;;;;;;14.70;100.00;100633.50;5056120;28;20025;-79
2021/08/22 11:23:03;;;;;;;7.78;3.22;;;;;;;14.52;100.00;100626.28;5054710;28;20040;-79
2021/08/22 11:25:29;;;;;;;6.63;3.30;;;;;;;14.65;100.00;100643.22;5056198;28;20028;-78
2021/08/22 11:28:12;;;;;;;5.30;2.80;;;;;;;14.57;100.00;100640.03;5055335;28;20154;-79